18:17
Airports
History
Links
Donate
Help keep this website running!
PayPal
Bitcoin
This page is community maintained. The information is intended for PC simulator navigation or reference.
Always use approved charts for navigation.
SSBZ
Aeroclube
Aeroclube (SSBZ)
Sapiranga, Rio Grande do Sul, Brazil (93800)
4
Lat/Lng:29° 40' 34" S / 50° 58' 53" W
-29.676111 / -50.981389
Elevation:56'ft / 17mMSL
ID / ICAO:SSBZ
Runways:1
Longest:04-22
Dirt 837m / 2,746ft
Nearby Weather18:00 GMT 2017-10-19
Nearby weather at SBCO, Canoas located 21.0 nautical miles from SSBZ
Altimeter: 29.88
Visibility: 6.2 statute miles
Wind: 14 knots (from 260°)
Temp: 26°c / 79°f
Humidity: 65.4%

METAR: SBCO 191800Z 26014KT 9999 SCT027 26/19 Q1012

(Powered by phpweather)
Runway 04 / 22
Dimensions:836.9 x 29.9m 2746' x 98'ft
Surface:Dirt
Runway 04 [A]Runway 22 [B]
Heading:021°TH 201°TH
Lat:
Lng:
29° 40' 46.57"S
50° 58' 58.57"W
29° 40' 21.43"S
50° 58' 47.43"W
User Notes and Comments
29° 40' 34" S / 50° 58' 53" W
Distance To
Airport ID:
Nearby Airports
(C) Novo Hamburgo 6.2 NM
SSNH WSW 257°
(C) Canoas 21.0 NM
SBCO ( WX ) SSW 207°
(C) Canela 23.0 NM
SSCN NNE 23°
(C) Salgado Filho 24.8 NM
SBPA ( WX ) SSW 207°
4 Fazenda do Jacui 28.6 NM
SSJC SW 222°
(C) Montenegro 30.6 NM
SSNG W 264°
(C) Campo Dos Bugres 35.3 NM
SBCX NNW 339°
VFR Chart
Flight Planning at SkyVector.com